Time,TemperatureF,DewpointF,PressureIn,WindDirection,WindDirectionDegrees,WindSpeedMPH,WindSpeedGustMPH,Humidity,HourlyPrecipIn,Conditions,Clouds,dailyrainin,SoftwareType,DateUTC
2013-03-11 00:03:00,63.7,60.1,29.92,SSE,158,11.5,21.4,88,0.00,CLR,,0.00,WeatherDisplay:10.37,2013-03-11 05:03:00,
2013-03-11 00:08:00,63.7,60.1,29.92,SSE,158,12.4,23.9,88,0.00,CLR,,0.00,WeatherDisplay:10.37,2013-03-11 05:08:00,
2013-03-11 00:13:00,63.7,60.1,29.92,South,180,5.8,12.1,88,0.00,CLR,,0.00,WeatherDisplay:10.37,2013-03-11 05:13:00,
2013-03-11 00:19:00,63.7,60.1,29.92,South,180,11.5,21.4,88,0.00,CLR,,0.00,WeatherDisplay:10.37,2013-03-11 05:19:00,
2013-03-11 00:24:00,63.7,60.1,29.92,SSE,158,13.8,26.2,88,0.00,CLR,,0.00,WeatherDisplay:10.37,2013-03-11 05:24:00,
2013-03-11 00:29:00,63.7,60.1,29.91,SSE,158,16.1,31.5,88,0.00,,,0.00,WeatherDisplay:10.37,2013-03-11 05:29:00,
2013-03-11 00:34:00,63.7,60.1,29.91,SSE,158,13.8,26.3,88,0.00,CLR,,0.00,WeatherDisplay:10.37,2013-03-11 05:34:00,
2013-03-11 00:39:00,63.7,60.1,29.90,SSE,158,20.7,28.9,88,0.00,,,0.00,WeatherDisplay:10.37,2013-03-11 05:39:00,
2013-03-11 00:44:00,63.7,60.1,29.89,SE,135,15.0,28.9,88,0.00,,,0.00,WeatherDisplay:10.37,2013-03-11 05:44:00,
2013-03-11 00:49:00,63.7,60.1,29.88,SE,135,11.5,22.6,88,0.00,CLR,,0.00,WeatherDisplay:10.37,2013-03-11 05:49:00,
2013-03-11 00:54:00,63.7,60.1,29.89,SSE,158,11.5,22.8,88,0.00,CLR,,0.00,WeatherDisplay:10.37,2013-03-11 05:54:00,
2013-03-11 00:59:00,63.7,60.1,29.90,SSE,158,12.7,24.5,88,0.00,CLR,,0.00,WeatherDisplay:10.37,2013-03-11 05:59:00,
2013-03-11 01:04:00,63.7,60.1,29.90,SE,135,11.5,22.7,88,0.00,CLR,,0.00,WeatherDisplay:10.37,2013-03-11 06:04:00,
2013-03-11 01:09:00,63.7,60.1,29.90,SSE,158,14.2,28.0,88,0.00,CLR,,0.00,WeatherDisplay:10.37,2013-03-11 06:09:00,
2013-03-11 01:14:00,63.9,60.2,29.91,South,180,11.5,22.8,88,0.00,CLR,,0.00,WeatherDisplay:10.37,2013-03-11 06:14:00,
2013-03-11 01:19:00,64.0,60.4,29.90,South,180,11.5,11.8,88,0.00,CLR,,0.00,WeatherDisplay:10.37,2013-03-11 06:19:00,
2013-03-11 01:24:00,64.0,60.4,29.91,SSE,158,15.0,29.8,88,0.00,CLR,,0.00,WeatherDisplay:10.37,2013-03-11 06:24:00,
2013-03-11 01:29:00,64.0,60.4,29.91,SSE,158,13.8,27.2,88,0.00,CLR,,0.00,WeatherDisplay:10.37,2013-03-11 06:29:00,
2013-03-11 01:34:00,64.0,60.4,29.91,South,180,11.5,15.8,88,0.00,CLR,,0.00,WeatherDisplay:10.37,2013-03-11 06:34:00,
2013-03-11 01:39:00,64.0,60.4,29.91,SSE,158,2.3,3.0,88,0.00,CLR,,0.00,WeatherDisplay:10.37,2013-03-11 06:39:00,
2013-03-11 01:44:00,63.9,60.2,29.91,SSE,158,6.9,13.6,88,0.00,CLR,,0.00,WeatherDisplay:10.37,2013-03-11 06:44:00,
2013-03-11 01:49:00,63.7,60.1,29.91,SSE,158,3.5,6.1,88,0.00,CLR,,0.00,WeatherDisplay:10.37,2013-03-11 06:49:00,
2013-03-11 01:55:00,63.7,60.1,29.91,South,180,5.8,12.3,88,0.00,CLR,,0.00,WeatherDisplay:10.37,2013-03-11 06:55:00,
2013-03-11 02:00:00,63.9,60.6,29.91,SSE,158,10.4,21.0,89,0.00,CLR,,0.00,WeatherDisplay:10.37,2013-03-11 07:00:00,
2013-03-11 02:05:00,63.9,60.6,29.91,SSE,158,10.4,20.4,89,0.00,CLR,,0.00,WeatherDisplay:10.37,2013-03-11 07:05:00,
2013-03-11 02:10:00,64.0,60.4,29.91,SSE,158,6.9,14.0,88,0.00,CLR,,0.00,WeatherDisplay:10.37,2013-03-11 07:10:00,
2013-03-11 02:15:00,64.0,60.7,29.91,SSE,158,11.5,20.8,89,0.00,CLR,,0.00,WeatherDisplay:10.37,2013-03-11 07:15:00,
2013-03-11 02:20:00,64.0,60.7,29.91,SSE,158,6.2,6.2,89,0.00,CLR,,0.00,WeatherDisplay:10.37,2013-03-11 07:20:00,
2013-03-11 02:25:00,64.0,60.7,29.91,South,180,12.8,25.4,89,0.00,CLR,,0.00,WeatherDisplay:10.37,2013-03-11 07:25:00,
2013-03-11 02:30:00,64.2,60.9,29.90,South,180,8.1,8.9,89,0.00,CLR,,0.00,WeatherDisplay:10.37,2013-03-11 07:30:00,
2013-03-11 02:35:00,64.2,60.9,29.90,South,180,5.8,6.1,89,0.00,CLR,,0.00,WeatherDisplay:10.37,2013-03-11 07:35:00,
2013-03-11 02:40:00,64.2,60.9,29.90,SSE,158,10.6,10.6,89,0.00,CLR,,0.00,WeatherDisplay:10.37,2013-03-11 07:40:00,
2013-03-11 02:45:00,64.0,60.7,29.90,SSE,158,12.7,25.1,89,0.00,CLR,,0.00,WeatherDisplay:10.37,2013-03-11 07:45:00,
2013-03-11 02:50:00,64.0,60.7,29.90,SSE,158,4.6,8.0,89,0.00,CLR,,0.00,WeatherDisplay:10.37,2013-03-11 07:50:00,
2013-03-11 02:55:00,64.0,60.7,29.89,South,180,5.8,10.5,89,0.00,CLR,,0.00,WeatherDisplay:10.37,2013-03-11 07:55:00,
2013-03-11 03:00:00,64.0,60.7,29.89,SSE,158,8.1,15.8,89,0.00,CLR,,0.00,WeatherDisplay:10.37,2013-03-11 08:00:00,
2013-03-11 03:05:00,64.0,60.7,29.89,South,180,8.1,15.8,89,0.00,CLR,,0.00,WeatherDisplay:10.37,2013-03-11 08:05:00,
2013-03-11 03:10:00,64.0,60.7,29.89,SSE,158,11.5,23.7,89,0.00,CLR,,0.00,WeatherDisplay:10.37,2013-03-11 08:10:00,
2013-03-11 03:15:00,64.0,60.7,29.89,South,180,2.3,3.8,89,0.00,CLR,,0.00,WeatherDisplay:10.37,2013-03-11 08:15:00,
2013-03-11 03:20:00,64.0,60.7,29.88,South,180,9.3,17.4,89,0.00,CLR,,0.00,WeatherDisplay:10.37,2013-03-11 08:20:00,
2013-03-11 03:25:00,64.0,61.0,29.88,South,180,3.5,7.9,90,0.00,CLR,,0.00,WeatherDisplay:10.37,2013-03-11 08:25:00,
2013-03-11 03:30:00,64.0,61.0,29.89,SSE,158,9.2,10.1,90,0.00,CLR,,0.00,WeatherDisplay:10.37,2013-03-11 08:30:00,
2013-03-11 03:35:00,64.0,61.0,29.88,South,180,2.3,0.0,90,0.00,CLR,,0.00,WeatherDisplay:10.37,2013-03-11 08:35:00,
2013-03-11 03:40:00,64.0,61.0,29.88,South,180,4.6,8.8,90,0.00,CLR,,0.00,WeatherDisplay:10.37,2013-03-11 08:40:00,
2013-03-11 03:45:00,64.2,61.2,29.88,SSE,158,1.2,2.6,90,0.00,CLR,,0.00,WeatherDisplay:10.37,2013-03-11 08:45:00,
2013-03-11 03:50:00,64.2,61.2,29.88,South,180,3.5,5.0,90,0.00,CLR,,0.00,WeatherDisplay:10.37,2013-03-11 08:50:00,
2013-03-11 03:55:00,64.2,61.2,29.87,South,180,8.1,14.9,90,0.00,CLR,,0.00,WeatherDisplay:10.37,2013-03-11 08:55:00,
2013-03-11 04:00:00,64.2,61.2,29.87,South,180,5.8,10.5,90,0.00,CLR,,0.00,WeatherDisplay:10.37,2013-03-11 09:00:00,
2013-03-11 04:05:00,64.2,61.2,29.87,South,180,2.3,10.5,90,0.00,CLR,,0.00,WeatherDisplay:10.37,2013-03-11 09:05:00,
2013-03-11 04:10:00,64.2,61.2,29.87,South,180,2.3,10.5,90,0.00,CLR,,0.00,WeatherDisplay:10.37,2013-03-11 09:10:00,
2013-03-11 04:15:00,64.2,61.2,29.87,SSE,158,3.5,5.8,90,0.00,CLR,,0.00,WeatherDisplay:10.37,2013-03-11 09:15:00,
2013-03-11 04:20:00,64.2,61.2,29.87,South,180,4.6,8.8,90,0.00,CLR,,0.00,WeatherDisplay:10.37,2013-03-11 09:20:00,
2013-03-11 04:25:00,64.4,61.4,29.87,SSE,158,11.5,19.9,90,0.00,CLR,,0.00,WeatherDisplay:10.37,2013-03-11 09:25:00,
2013-03-11 04:30:00,64.4,61.4,29.86,SSE,158,2.3,4.4,90,0.00,CLR,,0.00,WeatherDisplay:10.37,2013-03-11 09:30:00,
2013-03-11 04:35:00,64.4,61.4,29.86,SSE,158,3.5,6.0,90,0.00,CLR,,0.00,WeatherDisplay:10.37,2013-03-11 09:35:00,
2013-03-11 04:40:00,64.4,61.4,29.86,South,180,5.8,10.5,90,0.00,CLR,,0.00,WeatherDisplay:10.37,2013-03-11 09:40:00,
2013-03-11 04:45:00,64.4,61.4,29.86,South,180,6.9,11.7,90,0.00,CLR,,0.00,WeatherDisplay:10.37,2013-03-11 09:45:00,
2013-03-11 04:50:00,64.4,61.4,29.86,South,180,9.2,18.4,90,0.00,CLR,,0.00,WeatherDisplay:10.37,2013-03-11 09:50:00,
2013-03-11 04:55:00,64.6,61.9,29.86,South,180,3.5,7.9,91,0.00,CLR,,0.00,WeatherDisplay:10.37,2013-03-11 09:55:00,
2013-03-11 05:00:00,64.6,61.9,29.86,South,180,8.1,8.8,91,0.00,CLR,,0.00,WeatherDisplay:10.37,2013-03-11 10:00:00,
2013-03-11 05:05:00,64.6,61.9,29.86,South,180,8.1,8.8,91,0.00,CLR,,0.00,WeatherDisplay:10.37,2013-03-11 10:05:00,
2013-03-11 05:10:00,64.6,61.9,29.86,South,180,8.1,13.8,91,0.00,CLR,,0.00,WeatherDisplay:10.37,2013-03-11 10:10:00,
2013-03-11 05:15:00,64.8,62.1,29.86,SSE,158,8.8,12.5,91,0.00,CLR,,0.00,WeatherDisplay:10.37,2013-03-11 10:15:00,
2013-03-11 05:20:00,64.8,62.1,29.86,South,180,4.6,8.8,91,0.00,CLR,,0.00,WeatherDisplay:10.37,2013-03-11 10:20:00,
2013-03-11 05:25:00,64.9,62.2,29.86,SSE,158,6.9,13.5,91,0.00,CLR,,0.00,WeatherDisplay:10.37,2013-03-11 10:25:00,
2013-03-11 05:30:00,64.8,62.1,29.86,SSE,158,10.4,20.1,91,0.00,CLR,,0.00,WeatherDisplay:10.37,2013-03-11 10:30:00,
2013-03-11 05:35:00,64.8,62.1,29.86,SSE,158,11.5,21.9,91,0.00,CLR,,0.00,WeatherDisplay:10.37,2013-03-11 10:35:00,
2013-03-11 05:40:00,64.8,62.1,29.86,South,180,2.3,3.2,91,0.00,CLR,,0.00,WeatherDisplay:10.37,2013-03-11 10:40:00,
2013-03-11 05:45:00,64.9,62.2,29.86,South,180,4.6,6.2,91,0.00,CLR,,0.00,WeatherDisplay:10.37,2013-03-11 10:45:00,
2013-03-11 05:50:00,64.9,62.2,29.86,South,180,11.5,23.7,91,0.00,CLR,,0.00,WeatherDisplay:10.37,2013-03-11 10:50:00,
2013-03-11 05:55:00,65.1,62.4,29.86,South,180,8.1,14.3,91,0.00,CLR,,0.00,WeatherDisplay:10.37,2013-03-11 10:55:00,
2013-03-11 06:00:00,65.1,62.4,29.86,SSE,158,8.1,15.8,91,0.00,CLR,,0.00,WeatherDisplay:10.37,2013-03-11 11:00:00,
2013-03-11 06:05:00,65.1,62.4,29.86,SSE,158,8.1,15.8,91,0.00,CLR,,0.00,WeatherDisplay:10.37,2013-03-11 11:05:00,
2013-03-11 06:10:00,65.1,62.4,29.86,South,180,8.1,15.5,91,0.00,CLR,,0.00,WeatherDisplay:10.37,2013-03-11 11:10:00,
2013-03-11 06:15:00,65.1,62.1,29.86,SSE,158,9.2,18.9,90,0.00,CLR,,0.00,WeatherDisplay:10.37,2013-03-11 11:15:00,
2013-03-11 06:21:00,65.3,62.3,29.86,SSE,158,2.3,5.3,90,0.00,CLR,,0.00,WeatherDisplay:10.37,2013-03-11 11:21:00,
2013-03-11 06:26:00,65.3,62.3,29.86,SSE,158,6.9,12.6,90,0.00,CLR,,0.00,WeatherDisplay:10.37,2013-03-11 11:26:00,
2013-03-11 06:31:00,65.3,62.3,29.86,SW,225,12.7,12.7,90,0.00,CLR,,0.00,WeatherDisplay:10.37,2013-03-11 11:31:00,
2013-03-11 06:36:00,65.3,62.3,29.86,SSW,202,4.9,9.6,90,0.00,CLR,,0.00,WeatherDisplay:10.37,2013-03-11 11:36:00,
2013-03-11 06:41:00,65.5,62.5,29.86,SSW,202,4.6,0.0,90,0.00,CLR,,0.00,WeatherDisplay:10.37,2013-03-11 11:41:00,
2013-03-11 06:46:00,65.5,62.5,29.86,SSE,158,1.2,2.6,90,0.00,CLR,,0.00,WeatherDisplay:10.37,2013-03-11 11:46:00,
2013-03-11 06:51:00,65.7,62.6,29.87,SW,225,8.1,11.0,90,0.00,CLR,,0.00,WeatherDisplay:10.37,2013-03-11 11:51:00,
2013-03-11 06:56:00,65.8,62.8,29.87,SW,225,8.1,8.1,90,0.00,CLR,,0.00,WeatherDisplay:10.37,2013-03-11 11:56:00,
2013-03-11 07:01:00,65.8,62.8,29.87,SW,225,0.0,0.0,90,0.00,CLR,,0.00,WeatherDisplay:10.37,2013-03-11 12:01:00,
2013-03-11 07:06:00,65.8,63.1,29.87,South,180,4.4,6.3,91,0.00,CLR,,0.00,WeatherDisplay:10.37,2013-03-11 12:06:00,
2013-03-11 07:11:00,65.8,63.1,29.86,South,180,1.2,0.0,91,0.00,CLR,,0.00,WeatherDisplay:10.37,2013-03-11 12:11:00,
2013-03-11 07:16:00,65.8,63.1,29.86,SSE,158,0.0,0.0,91,0.00,CLR,,0.00,WeatherDisplay:10.37,2013-03-11 12:16:00,
2013-03-11 07:21:00,65.8,63.1,29.86,South,180,1.8,1.8,91,0.02,RA,,0.02,WeatherDisplay:10.37,2013-03-11 12:21:00,
2013-03-11 07:27:00,65.5,62.8,29.86,South,180,0.0,0.0,91,0.02,RA,,0.02,WeatherDisplay:10.37,2013-03-11 12:27:00,
2013-03-11 07:32:00,65.5,62.8,29.86,SSE,158,2.7,2.7,91,0.02,CLR,,0.02,WeatherDisplay:10.37,2013-03-11 12:32:00,
2013-03-11 07:37:00,65.5,63.1,29.86,SSE,158,0.0,0.0,92,0.04,RA,,0.04,WeatherDisplay:10.37,2013-03-11 12:37:00,
2013-03-11 07:42:00,65.3,62.9,29.87,SSW,202,6.2,12.3,92,0.06,RA,,0.06,WeatherDisplay:10.37,2013-03-11 12:42:00,
2013-03-11 07:47:00,65.5,63.1,29.86,South,180,5.8,8.2,92,0.06,RA,,0.06,WeatherDisplay:10.37,2013-03-11 12:47:00,
2013-03-11 07:52:00,65.5,63.1,29.86,South,180,4.0,7.9,92,0.06,,,0.06,WeatherDisplay:10.37,2013-03-11 12:52:00,
2013-03-11 07:57:00,65.7,63.3,29.85,South,180,3.5,7.0,92,0.06,CLR,,0.06,WeatherDisplay:10.37,2013-03-11 12:57:00,
2013-03-11 08:02:00,65.8,63.5,29.86,SSE,158,7.5,11.2,92,0.06,CLR,,0.06,WeatherDisplay:10.37,2013-03-11 13:02:00,
2013-03-11 08:07:00,66.0,63.6,29.86,SSE,158,9.7,19.3,92,0.06,CLR,,0.06,WeatherDisplay:10.37,2013-03-11 13:07:00,
2013-03-11 08:12:00,66.6,64.2,29.86,SSE,158,8.1,12.1,92,0.06,CLR,,0.06,WeatherDisplay:10.37,2013-03-11 13:12:00,
2013-03-11 08:17:00,66.7,64.3,29.85,SW,225,5.8,8.5,92,0.06,CLR,,0.06,WeatherDisplay:10.37,2013-03-11 13:17:00,
2013-03-11 08:22:00,66.9,64.2,29.86,South,180,5.8,11.4,91,0.04,CLR,,0.06,WeatherDisplay:10.37,2013-03-11 13:22:00,
2013-03-11 08:27:00,67.3,64.6,29.86,SSE,158,2.3,3.1,91,0.04,CLR,,0.06,WeatherDisplay:10.37,2013-03-11 13:27:00,
2013-03-11 08:33:00,67.6,64.9,29.86,South,180,2.3,4.0,91,0.04,CLR,,0.06,WeatherDisplay:10.37,2013-03-11 13:33:00,
2013-03-11 08:38:00,68.2,65.5,29.85,South,180,4.6,6.1,91,0.02,CLR,,0.06,WeatherDisplay:10.37,2013-03-11 13:38:00,
2013-03-11 08:43:00,69.1,66.0,29.86,SSE,158,6.9,14.0,90,0.00,CLR,,0.06,WeatherDisplay:10.37,2013-03-11 13:43:00,
2013-03-11 08:48:00,69.6,66.2,29.86,South,180,3.5,6.2,89,0.00,CLR,,0.06,WeatherDisplay:10.37,2013-03-11 13:48:00,
2013-03-11 08:53:00,70.0,66.6,29.86,SSE,158,2.3,3.5,89,0.00,CLR,,0.06,WeatherDisplay:10.37,2013-03-11 13:53:00,
2013-03-11 08:58:00,70.3,66.6,29.85,SSE,158,11.5,19.3,88,0.00,CLR,,0.06,WeatherDisplay:10.37,2013-03-11 13:58:00,
2013-03-11 09:03:00,70.5,66.8,29.85,SSE,158,6.9,11.4,88,0.00,CLR,,0.06,WeatherDisplay:10.37,2013-03-11 14:03:00,
2013-03-11 09:08:00,70.9,66.8,29.84,SSE,158,10.4,16.6,87,0.00,CLR,,0.06,WeatherDisplay:10.37,2013-03-11 14:08:00,
2013-03-11 09:13:00,71.4,67.0,29.84,SSE,158,11.5,22.8,86,0.00,CLR,,0.06,WeatherDisplay:10.37,2013-03-11 14:13:00,
2013-03-11 09:18:00,71.8,67.0,29.84,South,180,12.7,21.7,85,0.00,CLR,,0.06,WeatherDisplay:10.37,2013-03-11 14:18:00,
2013-03-11 09:23:00,71.8,66.7,29.84,SSE,158,12.7,25.4,84,0.00,CLR,,0.06,WeatherDisplay:10.37,2013-03-11 14:23:00,
2013-03-11 09:28:00,72.1,67.0,29.84,SSW,202,6.9,14.7,84,0.00,CLR,,0.06,WeatherDisplay:10.37,2013-03-11 14:28:00,
2013-03-11 09:33:00,72.3,66.9,29.84,South,180,15.0,16.3,83,0.00,,,0.06,WeatherDisplay:10.37,2013-03-11 14:33:00,
2013-03-11 09:38:00,72.3,66.9,29.84,SW,225,9.2,17.5,83,0.00,CLR,,0.06,WeatherDisplay:10.37,2013-03-11 14:38:00,
2013-03-11 09:43:00,72.1,66.7,29.84,SSE,158,9.3,19.2,83,0.00,CLR,,0.06,WeatherDisplay:10.37,2013-03-11 14:43:00,
2013-03-11 09:48:00,71.8,66.3,29.84,SW,225,12.7,20.3,83,0.00,CLR,,0.06,WeatherDisplay:10.37,2013-03-11 14:48:00,
2013-03-11 09:53:00,71.4,66.0,29.84,SE,135,10.4,20.1,83,0.00,CLR,,0.06,WeatherDisplay:10.37,2013-03-11 14:53:00,
2013-03-11 09:58:00,71.2,65.8,29.84,SW,225,6.9,14.0,83,0.00,CLR,,0.06,WeatherDisplay:10.37,2013-03-11 14:58:00,
2013-03-11 10:03:00,70.9,65.8,29.84,South,180,11.5,21.9,84,0.00,CLR,,0.06,WeatherDisplay:10.37,2013-03-11 15:03:00,
2013-03-11 10:08:00,70.9,65.8,29.84,SSW,202,8.1,8.1,84,0.00,CLR,,0.06,WeatherDisplay:10.37,2013-03-11 15:08:00,
2013-03-11 10:13:00,70.5,65.8,29.86,NNW,338,11.5,22.8,85,0.00,CLR,,0.06,WeatherDisplay:10.37,2013-03-11 15:13:00,
2013-03-11 10:18:00,68.7,61.9,29.87,NNW,338,15.5,30.7,79,0.00,CLR,,0.06,WeatherDisplay:10.37,2013-03-11 15:18:00,
2013-03-11 10:23:00,66.6,59.8,29.88,WSW,248,6.9,10.9,79,0.00,CLR,,0.08,WeatherDisplay:10.37,2013-03-11 15:23:00,
2013-03-11 10:28:00,63.9,57.2,29.88,West,270,9.2,14.1,79,0.06,RA,,0.12,WeatherDisplay:10.37,2013-03-11 15:28:00,
2013-03-11 10:33:00,62.2,56.0,29.89,WNW,292,9.2,15.8,80,0.18,RA,,0.24,WeatherDisplay:10.37,2013-03-11 15:33:00,
2013-03-11 10:38:00,60.6,54.8,29.89,NW,315,13.8,26.3,81,0.24,RA,,0.30,WeatherDisplay:10.37,2013-03-11 15:38:00,
2013-03-11 10:43:00,59.2,54.0,29.89,West,270,15.0,15.0,83,0.26,RA,,0.32,WeatherDisplay:10.37,2013-03-11 15:43:00,
2013-03-11 10:48:00,58.3,53.5,29.89,WNW,292,0.0,0.0,84,0.26,RA,,0.32,WeatherDisplay:10.37,2013-03-11 15:48:00,
2013-03-11 10:53:00,57.6,53.1,29.89,NNE,22,0.0,0.0,85,0.26,,,0.32,WeatherDisplay:10.37,2013-03-11 15:53:00,
2013-03-11 10:59:00,57.0,52.9,29.89,NNW,338,0.0,0.0,86,0.28,RA,,0.34,WeatherDisplay:10.37,2013-03-11 15:59:00,
2013-03-11 11:04:00,56.5,52.3,29.89,WSW,248,0.0,0.0,86,0.28,RA,,0.34,WeatherDisplay:10.37,2013-03-11 16:04:00,
2013-03-11 11:09:00,56.5,52.7,29.88,NE,45,8.1,14.3,87,0.28,,,0.34,WeatherDisplay:10.37,2013-03-11 16:09:00,
2013-03-11 11:14:00,56.1,52.3,29.88,NW,315,0.0,0.0,87,0.28,CLR,,0.34,WeatherDisplay:10.37,2013-03-11 16:14:00,
2013-03-11 11:19:00,56.1,52.3,29.89,NNE,22,0.0,0.0,87,0.30,RA,,0.37,WeatherDisplay:10.37,2013-03-11 16:19:00,
2013-03-11 11:24:00,55.9,52.4,29.91,SSW,202,13.8,27.2,88,0.28,RA,,0.37,WeatherDisplay:10.37,2013-03-11 16:24:00,
2013-03-11 11:29:00,55.6,52.1,29.89,NNE,22,2.3,0.0,88,0.24,CLR,,0.37,WeatherDisplay:10.37,2013-03-11 16:29:00,
2013-03-11 11:34:00,55.0,51.5,29.88,ENE,68,0.0,5.8,88,0.12,CLR,,0.37,WeatherDisplay:10.37,2013-03-11 16:34:00,
2013-03-11 11:39:00,54.9,51.4,29.90,NNW,338,1.2,2.7,88,0.06,CLR,,0.37,WeatherDisplay:10.37,2013-03-11 16:39:00,
2013-03-11 11:44:00,54.7,51.5,29.89,NW,315,0.0,0.0,89,0.04,CLR,,0.37,WeatherDisplay:10.37,2013-03-11 16:44:00,
2013-03-11 11:49:00,54.7,51.5,29.90,NNE,22,12.7,12.7,89,0.04,CLR,,0.37,WeatherDisplay:10.37,2013-03-11 16:49:00,
2013-03-11 11:54:00,54.5,51.3,29.90,ENE,68,10.4,20.1,89,0.04,CLR,,0.37,WeatherDisplay:10.37,2013-03-11 16:54:00,
2013-03-11 11:59:00,54.3,51.1,29.90,ENE,68,0.0,0.0,89,0.02,CLR,,0.37,WeatherDisplay:10.37,2013-03-11 16:59:00,
2013-03-11 12:05:00,54.1,51.0,29.90,NNE,22,1.2,0.0,89,0.02,CLR,,0.37,WeatherDisplay:10.37,2013-03-11 17:05:00,
2013-03-11 12:10:00,54.0,50.8,29.89,NNW,338,0.0,0.0,89,0.02,CLR,,0.37,WeatherDisplay:10.37,2013-03-11 17:10:00,
2013-03-11 12:15:00,54.0,50.8,29.90,NNE,22,0.0,0.0,89,0.02,CLR,,0.37,WeatherDisplay:10.37,2013-03-11 17:15:00,
2013-03-11 12:20:00,54.0,50.8,29.89,ENE,68,0.0,0.0,89,0.00,CLR,,0.37,WeatherDisplay:10.37,2013-03-11 17:20:00,
2013-03-11 12:25:00,53.8,50.6,29.90,ENE,68,0.0,0.0,89,0.00,CLR,,0.37,WeatherDisplay:10.37,2013-03-11 17:25:00,
2013-03-11 12:30:00,53.8,50.6,29.90,NNE,22,0.0,0.0,89,0.00,CLR,,0.37,WeatherDisplay:10.37,2013-03-11 17:30:00,
2013-03-11 12:35:00,53.8,50.6,29.89,NE,45,0.0,0.0,89,0.00,CLR,,0.37,WeatherDisplay:10.37,2013-03-11 17:35:00,
2013-03-11 12:40:00,53.6,50.4,29.89,NNW,338,0.0,0.0,89,0.00,CLR,,0.37,WeatherDisplay:10.37,2013-03-11 17:40:00,
2013-03-11 12:45:00,53.8,50.6,29.88,NE,45,0.0,0.0,89,0.00,CLR,,0.37,WeatherDisplay:10.37,2013-03-11 17:45:00,
2013-03-11 12:50:00,53.6,50.4,29.88,NE,45,0.0,0.0,89,0.00,CLR,,0.37,WeatherDisplay:10.37,2013-03-11 17:50:00,
2013-03-11 12:55:00,53.8,50.9,29.88,WNW,292,0.0,0.0,90,0.00,CLR,,0.37,WeatherDisplay:10.37,2013-03-11 17:55:00,
2013-03-11 13:00:00,54.0,51.1,29.88,North,0,0.0,0.0,90,0.00,CLR,,0.37,WeatherDisplay:10.37,2013-03-11 18:00:00,
2013-03-11 13:05:00,54.0,51.1,29.88,NW,315,0.0,0.0,90,0.00,CLR,,0.37,WeatherDisplay:10.37,2013-03-11 18:05:00,
2013-03-11 13:10:00,53.6,50.4,29.88,NE,45,0.0,0.0,89,0.02,RA,,0.39,WeatherDisplay:10.37,2013-03-11 18:10:00,
2013-03-11 13:15:00,53.4,50.3,29.89,NNW,338,0.0,0.0,89,0.02,RA,,0.39,WeatherDisplay:10.37,2013-03-11 18:15:00,
2013-03-11 13:20:00,53.4,50.3,29.87,NNW,338,0.0,0.0,89,0.10,RA,,0.47,WeatherDisplay:10.37,2013-03-11 18:20:00,
2013-03-11 13:25:00,53.2,50.4,29.88,ENE,68,0.0,0.0,90,0.12,RA,,0.49,WeatherDisplay:10.37,2013-03-11 18:25:00,
2013-03-11 13:30:00,53.4,50.6,29.87,ENE,68,0.0,0.0,90,0.12,RA,,0.49,WeatherDisplay:10.37,2013-03-11 18:30:00,
2013-03-11 13:35:00,53.4,50.6,29.87,ENE,68,0.0,0.0,90,0.14,RA,,0.51,WeatherDisplay:10.37,2013-03-11 18:35:00,
2013-03-11 13:40:00,53.8,50.9,29.86,NE,45,0.0,0.0,90,0.14,RA,,0.51,WeatherDisplay:10.37,2013-03-11 18:40:00,
2013-03-11 13:45:00,54.1,51.3,29.86,NE,45,0.0,0.0,90,0.14,CLR,,0.51,WeatherDisplay:10.37,2013-03-11 18:45:00,
2013-03-11 13:50:00,54.3,51.4,29.86,NE,45,0.0,0.0,90,0.14,CLR,,0.51,WeatherDisplay:10.37,2013-03-11 18:50:00,
2013-03-11 13:55:00,54.5,51.6,29.85,NE,45,0.0,0.0,90,0.14,CLR,,0.51,WeatherDisplay:10.37,2013-03-11 18:55:00,
2013-03-11 14:00:00,54.5,51.6,29.85,WNW,292,0.0,0.0,90,0.14,CLR,,0.51,WeatherDisplay:10.37,2013-03-11 19:00:00,
2013-03-11 14:05:00,54.5,51.6,29.85,NNW,338,0.0,0.0,90,0.14,CLR,,0.51,WeatherDisplay:10.37,2013-03-11 19:05:00,
2013-03-11 14:10:00,54.5,51.6,29.85,ENE,68,0.0,0.0,90,0.12,CLR,,0.51,WeatherDisplay:10.37,2013-03-11 19:10:00,
2013-03-11 14:15:00,54.5,51.6,29.85,ENE,68,0.0,0.0,90,0.12,CLR,,0.51,WeatherDisplay:10.37,2013-03-11 19:15:00,
2013-03-11 14:20:00,54.5,51.6,29.84,ENE,68,0.0,0.0,90,0.04,CLR,,0.51,WeatherDisplay:10.37,2013-03-11 19:20:00,
2013-03-11 14:25:00,54.5,51.6,29.83,ENE,68,0.0,0.0,90,0.02,CLR,,0.51,WeatherDisplay:10.37,2013-03-11 19:25:00,
2013-03-11 14:30:00,54.5,51.6,29.83,ENE,68,0.0,0.0,90,0.02,CLR,,0.51,WeatherDisplay:10.37,2013-03-11 19:30:00,
2013-03-11 14:35:00,54.7,51.8,29.84,ENE,68,0.0,0.0,90,0.00,CLR,,0.51,WeatherDisplay:10.37,2013-03-11 19:35:00,
2013-03-11 14:40:00,54.7,51.8,29.84,WNW,292,2.3,5.0,90,0.00,CLR,,0.51,WeatherDisplay:10.37,2013-03-11 19:40:00,
2013-03-11 14:45:00,54.7,51.8,29.84,WNW,292,0.0,0.0,90,0.00,CLR,,0.51,WeatherDisplay:10.37,2013-03-11 19:45:00,
2013-03-11 14:50:00,54.9,52.0,29.84,North,0,0.0,0.0,90,0.00,CLR,,0.51,WeatherDisplay:10.37,2013-03-11 19:50:00,
2013-03-11 14:55:00,54.7,51.8,29.84,NE,45,0.0,0.0,90,0.00,CLR,,0.51,WeatherDisplay:10.37,2013-03-11 19:55:00,
2013-03-11 15:00:00,54.9,52.0,29.84,ENE,68,0.0,0.0,90,0.00,CLR,,0.51,WeatherDisplay:10.37,2013-03-11 20:00:00,
2013-03-11 15:05:00,55.0,52.2,29.84,ENE,68,0.0,0.0,90,0.00,CLR,,0.51,WeatherDisplay:10.37,2013-03-11 20:05:00,
2013-03-11 15:10:00,55.4,52.5,29.84,WNW,292,11.5,18.4,90,0.00,CLR,,0.51,WeatherDisplay:10.37,2013-03-11 20:10:00,
2013-03-11 15:15:00,55.6,52.7,29.84,NNW,338,2.3,3.1,90,0.00,CLR,,0.51,WeatherDisplay:10.37,2013-03-11 20:15:00,
2013-03-11 15:20:00,55.9,53.0,29.84,NE,45,0.0,0.7,90,0.00,CLR,,0.51,WeatherDisplay:10.37,2013-03-11 20:20:00,
2013-03-11 15:25:00,56.1,52.9,29.84,NNW,338,0.0,0.0,89,0.00,CLR,,0.51,WeatherDisplay:10.37,2013-03-11 20:25:00,
2013-03-11 15:30:00,55.9,52.4,29.84,NNE,22,0.0,0.0,88,0.00,CLR,,0.51,WeatherDisplay:10.37,2013-03-11 20:30:00,
2013-03-11 15:35:00,55.9,52.4,29.84,NNE,22,0.0,0.0,88,0.00,CLR,,0.51,WeatherDisplay:10.37,2013-03-11 20:35:00,
2013-03-11 15:40:00,55.8,52.3,29.85,ENE,68,10.2,10.2,88,0.00,CLR,,0.51,WeatherDisplay:10.37,2013-03-11 20:40:00,
2013-03-11 15:45:00,55.4,51.9,29.84,NW,315,0.0,0.0,88,0.00,CLR,,0.51,WeatherDisplay:10.37,2013-03-11 20:45:00,
2013-03-11 15:50:00,55.2,51.7,29.84,NE,45,1.2,0.0,88,0.00,CLR,,0.51,WeatherDisplay:10.37,2013-03-11 20:50:00,
2013-03-11 15:55:00,55.2,51.7,29.84,NNE,22,0.0,0.4,88,0.00,CLR,,0.51,WeatherDisplay:10.37,2013-03-11 20:55:00,
2013-03-11 16:00:00,55.2,51.7,29.84,NNE,22,0.0,0.0,88,0.00,CLR,,0.51,WeatherDisplay:10.37,2013-03-11 21:00:00,
2013-03-11 16:05:00,55.2,51.7,29.84,North,0,0.0,0.0,88,0.00,CLR,,0.51,WeatherDisplay:10.37,2013-03-11 21:05:00,
2013-03-11 16:10:00,55.6,52.1,29.83,ENE,68,0.0,0.0,88,0.00,CLR,,0.51,WeatherDisplay:10.37,2013-03-11 21:10:00,
2013-03-11 16:15:00,55.9,52.4,29.84,ENE,68,2.3,2.3,88,0.00,CLR,,0.51,WeatherDisplay:10.37,2013-03-11 21:15:00,
2013-03-11 16:20:00,56.1,52.6,29.84,ENE,68,2.3,4.6,88,0.00,CLR,,0.51,WeatherDisplay:10.37,2013-03-11 21:20:00,
2013-03-11 16:25:00,55.9,52.1,29.84,ENE,68,5.8,12.4,87,0.00,CLR,,0.51,WeatherDisplay:10.37,2013-03-11 21:25:00,
2013-03-11 16:30:00,55.8,51.9,29.83,ENE,68,6.9,13.2,87,0.00,CLR,,0.51,WeatherDisplay:10.37,2013-03-11 21:30:00,
2013-03-11 16:35:00,55.4,51.6,29.84,ENE,68,2.3,6.9,87,0.00,CLR,,0.51,WeatherDisplay:10.37,2013-03-11 21:35:00,
2013-03-11 16:40:00,55.6,51.8,29.84,ENE,68,13.8,27.2,87,0.00,CLR,,0.51,WeatherDisplay:10.37,2013-03-11 21:40:00,
2013-03-11 16:45:00,55.2,51.1,29.84,ENE,68,10.4,16.2,86,0.00,CLR,,0.51,WeatherDisplay:10.37,2013-03-11 21:45:00,
2013-03-11 16:50:00,55.4,51.3,29.83,ENE,68,6.9,13.1,86,0.00,CLR,,0.51,WeatherDisplay:10.37,2013-03-11 21:50:00,
2013-03-11 16:55:00,55.9,52.1,29.83,NNE,22,4.6,9.1,87,0.00,CLR,,0.51,WeatherDisplay:10.37,2013-03-11 21:55:00,
2013-03-11 17:00:00,56.3,52.2,29.83,ENE,68,9.2,9.2,86,0.00,CLR,,0.51,WeatherDisplay:10.37,2013-03-11 22:00:00,
2013-03-11 17:05:00,56.1,52.0,29.84,NE,45,4.6,9.6,86,0.00,CLR,,0.51,WeatherDisplay:10.37,2013-03-11 22:05:00,
2013-03-11 17:10:00,55.9,51.8,29.85,NNE,22,8.8,14.0,86,0.00,CLR,,0.51,WeatherDisplay:10.37,2013-03-11 22:10:00,
2013-03-11 17:15:00,55.6,51.5,29.85,ENE,68,9.2,14.2,86,0.00,CLR,,0.51,WeatherDisplay:10.37,2013-03-11 22:15:00,
2013-03-11 17:20:00,55.0,50.9,29.85,ENE,68,2.3,4.4,86,0.00,CLR,,0.51,WeatherDisplay:10.37,2013-03-11 22:20:00,
2013-03-11 17:25:00,54.3,50.2,29.85,NE,45,2.3,5.0,86,0.00,CLR,,0.51,WeatherDisplay:10.37,2013-03-11 22:25:00,
2013-03-11 17:30:00,54.1,50.4,29.85,NE,45,9.2,14.0,87,0.00,CLR,,0.51,WeatherDisplay:10.37,2013-03-11 22:30:00,
2013-03-11 17:35:00,54.0,50.2,29.85,ENE,68,8.1,15.8,87,0.00,CLR,,0.51,WeatherDisplay:10.37,2013-03-11 22:35:00,
2013-03-11 17:40:00,53.8,50.0,29.86,ENE,68,5.8,11.4,87,0.00,CLR,,0.51,WeatherDisplay:10.37,2013-03-11 22:40:00,
2013-03-11 17:45:00,53.8,50.0,29.86,NNE,22,8.1,14.9,87,0.00,CLR,,0.51,WeatherDisplay:10.37,2013-03-11 22:45:00,
2013-03-11 17:50:00,54.0,50.2,29.86,NNE,22,8.1,8.1,87,0.00,CLR,,0.51,WeatherDisplay:10.37,2013-03-11 22:50:00,
2013-03-11 17:55:00,54.1,50.0,29.86,ENE,68,4.6,5.4,86,0.00,CLR,,0.51,WeatherDisplay:10.37,2013-03-11 22:55:00,
2013-03-11 18:00:00,54.1,50.0,29.86,NE,45,2.3,2.3,86,0.00,CLR,,0.51,WeatherDisplay:10.37,2013-03-11 23:00:00,
2013-03-11 18:05:00,54.3,50.2,29.86,NNE,22,0.0,0.0,86,0.00,CLR,,0.51,WeatherDisplay:10.37,2013-03-11 23:05:00,
2013-03-11 18:10:00,54.3,49.9,29.86,North,0,0.4,0.5,85,0.00,CLR,,0.51,WeatherDisplay:10.37,2013-03-11 23:10:00,
2013-03-11 18:15:00,54.3,49.9,29.86,WSW,248,12.7,12.7,85,0.00,CLR,,0.51,WeatherDisplay:10.37,2013-03-11 23:15:00,
2013-03-11 18:20:00,54.3,49.9,29.86,NNW,338,3.5,7.9,85,0.00,CLR,,0.51,WeatherDisplay:10.37,2013-03-11 23:20:00,
2013-03-11 18:25:00,54.3,49.6,29.86,NNE,22,0.0,0.0,84,0.00,CLR,,0.51,WeatherDisplay:10.37,2013-03-11 23:25:00,
2013-03-11 18:30:00,54.1,49.1,29.86,North,0,3.5,7.9,83,0.00,CLR,,0.51,WeatherDisplay:10.37,2013-03-11 23:30:00,
2013-03-11 18:35:00,54.1,48.8,29.87,NNW,338,2.3,3.5,82,0.00,CLR,,0.51,WeatherDisplay:10.37,2013-03-11 23:35:00,
2013-03-11 18:40:00,53.8,48.4,29.87,North,0,5.8,11.4,82,0.00,CLR,,0.51,WeatherDisplay:10.37,2013-03-11 23:40:00,
2013-03-11 18:45:00,53.4,47.7,29.87,WNW,292,2.3,2.3,81,0.00,CLR,,0.51,WeatherDisplay:10.37,2013-03-11 23:45:00,
2013-03-11 18:50:00,53.4,47.7,29.87,North,0,7.1,14.0,81,0.00,CLR,,0.51,WeatherDisplay:10.37,2013-03-11 23:50:00,
2013-03-11 18:55:00,52.9,47.2,29.87,NNE,22,9.7,13.7,81,0.00,CLR,,0.51,WeatherDisplay:10.37,2013-03-11 23:55:00,
2013-03-11 19:00:00,52.5,46.5,29.88,NNE,22,8.1,14.5,80,0.00,CLR,,0.51,WeatherDisplay:10.37,2013-03-12 00:00:00,
2013-03-11 19:05:00,52.5,46.5,29.88,ENE,68,8.4,16.6,80,0.00,CLR,,0.51,WeatherDisplay:10.37,2013-03-12 00:05:00,
2013-03-11 19:10:00,52.2,46.5,29.88,NE,45,3.5,6.4,81,0.00,CLR,,0.51,WeatherDisplay:10.37,2013-03-12 00:10:00,
2013-03-11 19:15:00,51.8,46.2,29.88,NE,45,3.5,5.9,81,0.00,CLR,,0.51,WeatherDisplay:10.37,2013-03-12 00:15:00,
2013-03-11 19:20:00,51.6,46.0,29.88,NE,45,3.5,7.9,81,0.00,CLR,,0.51,WeatherDisplay:10.37,2013-03-12 00:20:00,
2013-03-11 19:25:00,51.6,46.3,29.88,NE,45,0.0,0.0,82,0.00,CLR,,0.51,WeatherDisplay:10.37,2013-03-12 00:25:00,
2013-03-11 19:30:00,51.4,46.1,29.89,NNE,22,8.1,8.1,82,0.00,CLR,,0.51,WeatherDisplay:10.37,2013-03-12 00:30:00,
2013-03-11 19:35:00,51.3,46.0,29.90,North,0,8.1,15.8,82,0.00,CLR,,0.51,WeatherDisplay:10.37,2013-03-12 00:35:00,
2013-03-11 19:40:00,50.9,45.6,29.90,NNE,22,0.0,0.0,82,0.00,CLR,,0.51,WeatherDisplay:10.37,2013-03-12 00:40:00,
2013-03-11 19:45:00,50.7,45.4,29.90,NE,45,6.9,12.6,82,0.00,CLR,,0.51,WeatherDisplay:10.37,2013-03-12 00:45:00,
2013-03-11 19:50:00,50.7,45.7,29.90,NE,45,3.1,0.0,83,0.00,CLR,,0.51,WeatherDisplay:10.37,2013-03-12 00:50:00,
2013-03-11 19:55:00,50.5,45.2,29.91,NE,45,1.8,1.8,82,0.00,CLR,,0.51,WeatherDisplay:10.37,2013-03-12 00:55:00,
2013-03-11 20:00:00,50.4,45.1,29.91,ENE,68,0.0,0.0,82,0.00,CLR,,0.51,WeatherDisplay:10.37,2013-03-12 01:00:00,
2013-03-11 20:05:00,50.2,45.2,29.91,ENE,68,10.4,21.0,83,0.00,CLR,,0.51,WeatherDisplay:10.37,2013-03-12 01:05:00,
2013-03-11 20:10:00,49.8,44.9,29.91,NE,45,0.0,0.0,83,0.00,CLR,,0.51,WeatherDisplay:10.37,2013-03-12 01:10:00,
2013-03-11 20:15:00,49.8,44.9,29.91,NE,45,5.8,9.1,83,0.00,CLR,,0.51,WeatherDisplay:10.37,2013-03-12 01:15:00,
2013-03-11 20:20:00,49.6,44.7,29.91,NE,45,3.5,6.1,83,0.00,CLR,,0.51,WeatherDisplay:10.37,2013-03-12 01:20:00,
2013-03-11 20:25:00,49.3,44.3,29.92,NE,45,0.0,0.0,83,0.00,CLR,,0.51,WeatherDisplay:10.37,2013-03-12 01:25:00,
2013-03-11 20:30:00,49.1,44.2,29.92,NE,45,0.0,0.0,83,0.00,CLR,,0.51,WeatherDisplay:10.37,2013-03-12 01:30:00,
2013-03-11 20:35:00,48.9,44.3,29.92,NE,45,0.0,0.0,84,0.00,CLR,,0.51,WeatherDisplay:10.37,2013-03-12 01:35:00,
2013-03-11 20:40:00,48.7,44.1,29.92,NE,45,0.0,0.0,84,0.00,CLR,,0.51,WeatherDisplay:10.37,2013-03-12 01:40:00,
2013-03-11 20:45:00,48.7,44.1,29.92,NE,45,0.0,0.0,84,0.00,CLR,,0.51,WeatherDisplay:10.37,2013-03-12 01:45:00,
2013-03-11 20:50:00,48.6,43.9,29.92,NE,45,0.0,0.0,84,0.00,CLR,,0.51,WeatherDisplay:10.37,2013-03-12 01:50:00,
2013-03-11 20:55:00,48.4,43.8,29.92,NE,45,0.0,0.0,84,0.00,CLR,,0.51,WeatherDisplay:10.37,2013-03-12 01:55:00,
2013-03-11 21:00:00,48.4,43.8,29.92,NE,45,0.0,0.0,84,0.00,CLR,,0.51,WeatherDisplay:10.37,2013-03-12 02:00:00,
2013-03-11 21:05:00,48.2,43.9,29.93,NE,45,0.0,0.0,85,0.00,CLR,,0.51,WeatherDisplay:10.37,2013-03-12 02:05:00,
2013-03-11 21:10:00,48.0,43.7,29.93,NE,45,0.0,0.0,85,0.00,CLR,,0.51,WeatherDisplay:10.37,2013-03-12 02:10:00,
2013-03-11 21:15:00,48.0,43.7,29.93,NE,45,0.0,0.0,85,0.00,CLR,,0.51,WeatherDisplay:10.37,2013-03-12 02:15:00,
2013-03-11 21:20:00,47.8,43.5,29.93,NE,45,0.0,0.0,85,0.00,CLR,,0.51,WeatherDisplay:10.37,2013-03-12 02:20:00,
2013-03-11 21:25:00,47.8,43.5,29.93,NE,45,0.0,0.0,85,0.00,CLR,,0.51,WeatherDisplay:10.37,2013-03-12 02:25:00,
2013-03-11 21:31:00,47.5,43.5,29.94,NE,45,0.0,0.0,86,0.00,CLR,,0.51,WeatherDisplay:10.37,2013-03-12 02:31:00,
2013-03-11 21:36:00,47.3,43.3,29.94,NE,45,0.0,0.0,86,0.00,CLR,,0.51,WeatherDisplay:10.37,2013-03-12 02:36:00,
2013-03-11 21:41:00,47.3,43.3,29.94,NE,45,0.0,0.0,86,0.00,CLR,,0.51,WeatherDisplay:10.37,2013-03-12 02:41:00,
2013-03-11 21:47:00,47.1,43.1,29.94,NE,45,0.0,0.0,86,0.00,CLR,,0.51,WeatherDisplay:10.37,2013-03-12 02:47:00,
2013-03-11 21:52:00,47.1,43.1,29.94,NE,45,0.0,0.0,86,0.00,CLR,,0.51,WeatherDisplay:10.37,2013-03-12 02:52:00,
2013-03-11 21:57:00,47.1,43.1,29.94,NE,45,0.0,0.0,86,0.00,CLR,,0.51,WeatherDisplay:10.37,2013-03-12 02:57:00,
2013-03-11 22:02:00,47.1,43.1,29.94,NE,45,0.0,0.0,86,0.00,CLR,,0.51,WeatherDisplay:10.37,2013-03-12 03:02:00,
2013-03-11 22:07:00,46.9,43.0,29.94,NE,45,0.0,0.0,86,0.00,CLR,,0.51,WeatherDisplay:10.37,2013-03-12 03:07:00,
2013-03-11 22:12:00,46.9,43.3,29.95,NE,45,0.0,0.0,87,0.00,CLR,,0.51,WeatherDisplay:10.37,2013-03-12 03:12:00,
2013-03-11 22:17:00,46.9,43.3,29.95,NE,45,0.0,0.0,87,0.00,CLR,,0.51,WeatherDisplay:10.37,2013-03-12 03:17:00,
2013-03-11 22:22:00,46.9,43.3,29.95,NE,45,0.0,0.0,87,0.00,CLR,,0.51,WeatherDisplay:10.37,2013-03-12 03:22:00,
2013-03-11 22:27:00,46.9,43.3,29.95,NE,45,0.0,0.0,87,0.00,CLR,,0.51,WeatherDisplay:10.37,2013-03-12 03:27:00,
2013-03-11 22:32:00,46.8,43.1,29.95,NE,45,0.0,0.0,87,0.00,CLR,,0.51,WeatherDisplay:10.37,2013-03-12 03:32:00,
2013-03-11 22:37:00,46.6,42.9,29.96,NE,45,0.0,0.0,87,0.00,CLR,,0.51,WeatherDisplay:10.37,2013-03-12 03:37:00,
2013-03-11 22:42:00,46.6,42.9,29.96,NE,45,0.0,0.0,87,0.00,CLR,,0.51,WeatherDisplay:10.37,2013-03-12 03:42:00,
2013-03-11 22:47:00,46.6,42.9,29.95,NE,45,0.0,0.0,87,0.00,CLR,,0.51,WeatherDisplay:10.37,2013-03-12 03:47:00,
2013-03-11 22:52:00,46.2,42.9,29.95,NE,45,0.0,0.0,88,0.00,CLR,,0.51,WeatherDisplay:10.37,2013-03-12 03:52:00,
2013-03-11 22:57:00,46.2,42.9,29.96,NE,45,0.0,0.0,88,0.00,CLR,,0.51,WeatherDisplay:10.37,2013-03-12 03:57:00,
2013-03-11 23:00:00,46.2,42.9,29.96,NE,45,0.0,0.0,88,0.00,CLR,,0.51,WeatherDisplay:10.37,2013-03-12 04:00:00,
2013-03-11 23:01:00,46.2,42.9,29.96,NE,45,0.0,0.0,88,0.00,CLR,,0.51,WeatherDisplay:10.37,2013-03-12 04:01:00,
2013-03-11 23:02:00,46.2,42.9,29.96,NE,45,0.0,0.0,88,0.00,CLR,,0.51,WeatherDisplay:10.37,2013-03-12 04:02:00,
2013-03-11 23:07:00,46.0,42.7,29.96,NE,45,0.0,0.0,88,0.00,CLR,,0.51,WeatherDisplay:10.37,2013-03-12 04:07:00,
2013-03-11 23:12:00,46.2,42.9,29.96,NE,45,0.0,0.0,88,0.00,CLR,,0.51,WeatherDisplay:10.37,2013-03-12 04:12:00,
2013-03-11 23:18:00,46.2,42.9,29.96,NE,45,0.0,0.0,88,0.00,CLR,,0.51,WeatherDisplay:10.37,2013-03-12 04:18:00,
2013-03-11 23:23:00,46.2,42.9,29.96,NE,45,0.0,0.0,88,0.00,CLR,,0.51,WeatherDisplay:10.37,2013-03-12 04:23:00,
2013-03-11 23:28:00,46.2,42.9,29.96,NE,45,0.0,0.0,88,0.00,CLR,,0.51,WeatherDisplay:10.37,2013-03-12 04:28:00,
2013-03-11 23:33:00,46.2,42.9,29.96,NE,45,0.0,0.0,88,0.00,CLR,,0.51,WeatherDisplay:10.37,2013-03-12 04:33:00,
2013-03-11 23:38:00,46.2,42.9,29.96,NE,45,0.0,0.0,88,0.00,CLR,,0.51,WeatherDisplay:10.37,2013-03-12 04:38:00,
2013-03-11 23:43:00,46.2,42.9,29.96,NE,45,0.0,0.0,88,0.00,CLR,,0.51,WeatherDisplay:10.37,2013-03-12 04:43:00,
2013-03-11 23:48:00,46.2,42.9,29.95,NE,45,0.0,0.0,88,0.00,CLR,,0.51,WeatherDisplay:10.37,2013-03-12 04:48:00,
2013-03-11 23:53:00,46.2,42.9,29.96,NE,45,0.0,0.0,88,0.00,CLR,,0.51,WeatherDisplay:10.37,2013-03-12 04:53:00,
2013-03-11 23:58:00,46.2,42.9,29.95,NE,45,0.0,0.0,88,0.00,CLR,,0.51,WeatherDisplay:10.37,2013-03-12 04:58:00,